Time;durP1;ratioP1;P1;durP2;ratioP2;P2;SDS_P1;SDS_P2;PMS_P1;PMS_P2;Temp;Humidity;BMP_temperature;BMP_pressure;BME280_temperature;BME280_humidity;BME280_pressure;Samples;Min_cycle;Max_cycle;Signal;HPM_P1;HPM_P2
2023/05/24 00:01:03;;;;;;;4.80;3.33;;;;;;;14.74;80.61;100645.00;5081061;28;20672;-75
2023/05/24 00:03:33;;;;;;;5.83;3.77;;;;;;;14.69;80.57;100638.16;5078223;28;20677;-76
2023/05/24 00:06:01;;;;;;;5.07;3.50;;;;;;;14.67;80.79;100635.53;5082660;28;20563;-75
2023/05/24 00:08:26;;;;;;;4.77;4.03;;;;;;;14.69;80.31;100631.19;5079705;28;20231;-76
2023/05/24 00:10:52;;;;;;;5.37;4.07;;;;;;;14.69;80.34;100635.56;5067119;28;20690;-76
2023/05/24 00:13:17;;;;;;;4.50;3.13;;;;;;;14.64;80.51;100623.44;5079596;28;20187;-73
2023/05/24 00:15:43;;;;;;;3.73;3.33;;;;;;;14.63;80.79;100626.94;5078118;28;20201;-75
2023/05/24 00:18:08;;;;;;;6.17;3.57;;;;;;;14.69;80.38;100626.00;5077275;28;20212;-76
2023/05/24 00:20:33;;;;;;;4.50;3.57;;;;;;;14.62;80.83;100622.63;5080349;28;20404;-77
2023/05/24 00:23:00;;;;;;;5.30;3.07;;;;;;;14.59;80.87;100622.72;5080117;28;20211;-77
2023/05/24 00:25:25;;;;;;;4.77;3.77;;;;;;;14.62;81.21;100621.78;5082888;28;20457;-75
2023/05/24 00:27:50;;;;;;;3.90;3.50;;;;;;;14.60;81.64;100616.59;5078429;28;20718;-78
2023/05/24 00:30:16;;;;;;;7.33;4.03;;;;;;;14.62;81.64;100620.03;5072799;28;20576;-76
2023/05/24 00:32:41;;;;;;;5.10;3.17;;;;;;;14.57;81.65;100624.47;5057256;28;20310;-76
2023/05/24 00:35:07;;;;;;;6.53;3.47;;;;;;;14.53;81.72;100621.94;5076569;28;20200;-77
2023/05/24 00:37:32;;;;;;;5.13;3.20;;;;;;;14.54;81.67;100621.06;5077404;28;20205;-75
2023/05/24 00:39:57;;;;;;;5.57;3.80;;;;;;;14.49;82.39;100623.75;5074760;28;20293;-76
2023/05/24 00:42:23;;;;;;;6.63;3.90;;;;;;;14.50;82.89;100622.03;5062727;28;20247;-76
2023/05/24 00:44:48;;;;;;;6.57;4.13;;;;;;;14.41;83.02;100623.06;5081600;28;20651;-75
2023/05/24 00:47:14;;;;;;;5.87;3.37;;;;;;;14.39;82.67;100625.69;5073444;28;20415;-77
2023/05/24 00:49:40;;;;;;;5.43;3.83;;;;;;;14.42;82.10;100620.41;5077056;28;20279;-76
2023/05/24 00:52:07;;;;;;;6.87;3.50;;;;;;;14.37;82.63;100611.84;5082438;28;20190;-76
2023/05/24 00:54:33;;;;;;;4.63;3.40;;;;;;;14.38;82.64;100615.31;5081062;28;20188;-78
2023/05/24 00:56:58;;;;;;;6.77;3.90;;;;;;;14.33;83.11;100613.66;5071067;28;20196;-75
2023/05/24 00:59:25;;;;;;;4.50;3.67;;;;;;;14.26;83.04;100612.06;5073417;28;20217;-76
2023/05/24 01:01:51;;;;;;;6.10;3.77;;;;;;;14.20;83.60;100599.16;5077255;28;20216;-76
2023/05/24 01:04:16;;;;;;;3.93;3.43;;;;;;;14.16;83.50;100605.28;5072111;28;20192;-76
2023/05/24 01:06:58;;;;;;;4.60;3.43;;;;;;;14.15;83.93;100607.06;5076592;28;20207;-75
2023/05/24 01:09:56;;;;;;;5.90;3.77;;;;;;;14.09;83.98;100601.09;5079467;28;20558;-76
2023/05/24 01:12:36;;;;;;;4.80;3.33;;;;;;;14.01;84.14;100609.06;5054982;28;20556;-76
2023/05/24 01:15:16;;;;;;;5.13;3.97;;;;;;;13.98;84.19;100609.97;5073235;28;20264;-74
2023/05/24 01:18:01;;;;;;;6.23;3.57;;;;;;;14.00;83.91;100609.94;5069263;28;20206;-75
2023/05/24 01:20:31;;;;;;;6.73;4.00;;;;;;;13.95;84.16;100601.34;5077774;28;20198;-77
2023/05/24 01:23:27;;;;;;;8.57;4.30;;;;;;;13.90;84.67;100613.59;5077495;28;20315;-77
2023/05/24 01:26:00;;;;;;;5.30;3.33;;;;;;;13.87;85.05;100610.16;5075747;28;20200;-75
2023/05/24 01:28:26;;;;;;;7.13;4.17;;;;;;;13.88;85.06;100608.41;5056103;28;20312;-76
2023/05/24 01:30:53;;;;;;;6.40;3.83;;;;;;;13.87;84.92;100606.69;5057782;28;20278;-76
2023/05/24 01:33:19;;;;;;;7.30;3.93;;;;;;;13.84;85.24;100607.59;5081637;28;20184;-75
2023/05/24 01:35:45;;;;;;;6.23;3.60;;;;;;;13.87;85.26;100607.56;5078966;28;20198;-75
2023/05/24 01:38:10;;;;;;;6.43;3.93;;;;;;;13.88;85.27;100611.00;5072029;28;20217;-75
2023/05/24 01:40:37;;;;;;;6.70;4.63;;;;;;;13.90;84.82;100616.19;5075243;28;20681;-77
2023/05/24 01:43:16;;;;;;;7.37;4.27;;;;;;;13.79;85.98;100612.03;5080851;28;20187;-76
2023/05/24 01:45:51;;;;;;;7.90;4.70;;;;;;;13.86;85.55;100608.44;5084646;28;20200;-78
2023/05/24 01:48:20;;;;;;;7.07;4.00;;;;;;;13.80;85.65;100618.09;5060154;28;20211;-75
2023/05/24 01:50:51;;;;;;;6.80;4.20;;;;;;;13.73;86.34;100617.34;5080561;28;20182;-76
2023/05/24 01:53:18;;;;;;;5.33;4.00;;;;;;;13.79;85.88;100625.03;5082553;28;20188;-76
2023/05/24 01:55:47;;;;;;;8.47;4.20;;;;;;;13.80;85.54;100623.31;5080998;28;20249;-77
2023/05/24 01:58:15;;;;;;;6.97;4.73;;;;;;;13.66;86.31;100624.41;5054826;28;20219;-74
2023/05/24 02:00:42;;;;;;;7.67;4.47;;;;;;;13.71;86.48;100627.75;5077245;28;20651;-75
2023/05/24 02:03:08;;;;;;;6.83;4.33;;;;;;;13.69;86.61;100632.13;5065397;28;20188;-76
2023/05/24 02:05:33;;;;;;;6.97;4.23;;;;;;;13.65;86.96;100627.00;5073393;28;20195;-75
2023/05/24 02:07:58;;;;;;;4.20;3.80;;;;;;;13.57;87.23;100630.59;5074950;28;20210;-75
2023/05/24 02:10:24;;;;;;;5.07;4.57;;;;;;;13.52;88.08;100637.59;5077945;28;20197;-75
2023/05/24 02:12:50;;;;;;;7.97;4.77;;;;;;;13.48;87.39;100633.31;5080683;28;20179;-76
2023/05/24 02:15:15;;;;;;;7.93;4.23;;;;;;;13.50;87.38;100638.53;5081024;28;20190;-76
2023/05/24 02:17:41;;;;;;;9.37;3.97;;;;;;;13.53;87.13;100641.91;5080832;28;20291;-75
2023/05/24 02:20:08;;;;;;;6.10;4.00;;;;;;;13.50;87.55;100643.72;5085409;28;20184;-75
2023/05/24 02:22:33;;;;;;;5.63;4.10;;;;;;;13.56;87.02;100647.06;5060250;28;20198;-77
2023/05/24 02:24:58;;;;;;;7.77;4.40;;;;;;;13.48;87.59;100638.53;5061510;28;20207;-75
2023/05/24 02:27:24;;;;;;;8.07;4.53;;;;;;;13.46;88.07;100647.25;5081553;28;20168;-74
2023/05/24 02:29:49;;;;;;;8.47;4.53;;;;;;;13.41;87.95;100637.75;5073914;28;20264;-75
2023/05/24 02:32:14;;;;;;;8.93;4.50;;;;;;;13.41;87.50;100648.16;5079680;28;20235;-75
2023/05/24 02:34:41;;;;;;;6.07;4.13;;;;;;;13.36;88.33;100644.75;5080568;28;20232;-75
2023/05/24 02:37:06;;;;;;;7.63;4.60;;;;;;;13.33;88.95;100646.53;5081502;28;20250;-76
2023/05/24 02:39:32;;;;;;;9.77;4.60;;;;;;;13.35;88.77;100649.97;5077183;28;20294;-76
2023/05/24 02:41:57;;;;;;;7.53;4.73;;;;;;;13.34;88.80;100641.31;5077220;28;20193;-75
2023/05/24 02:44:22;;;;;;;7.63;4.67;;;;;;;13.35;88.59;100637.84;5066500;28;20645;-75
2023/05/24 02:46:47;;;;;;;8.67;4.40;;;;;;;13.37;87.95;100650.81;5077490;28;20186;-75
2023/05/24 02:49:13;;;;;;;7.30;4.37;;;;;;;13.40;87.09;100648.19;5081890;28;20199;-75
2023/05/24 02:51:38;;;;;;;8.70;4.83;;;;;;;13.25;87.82;100654.41;5083567;28;20578;-75
2023/05/24 02:54:03;;;;;;;8.43;5.13;;;;;;;13.32;87.19;100653.47;5085536;28;20513;-76
2023/05/24 02:56:29;;;;;;;9.07;4.70;;;;;;;13.18;87.65;100653.66;5055638;28;20671;-75
2023/05/24 02:58:55;;;;;;;7.47;4.47;;;;;;;13.24;87.26;100655.31;5073095;28;20238;-77
2023/05/24 03:01:21;;;;;;;10.73;5.13;;;;;;;13.11;88.19;100665.88;5079296;28;20292;-75
2023/05/24 03:03:46;;;;;;;8.10;4.50;;;;;;;13.21;87.73;100653.63;5079541;28;20179;-76
2023/05/24 03:06:12;;;;;;;8.63;4.93;;;;;;;13.16;87.62;100658.00;5082810;28;20192;-74
2023/05/24 03:08:39;;;;;;;6.40;4.50;;;;;;;13.16;87.31;100662.38;5083639;28;20284;-75
2023/05/24 03:11:04;;;;;;;8.33;4.40;;;;;;;13.11;87.05;100658.06;5078832;28;20649;-75
2023/05/24 03:13:30;;;;;;;8.13;4.10;;;;;;;13.11;87.16;100658.06;5074347;28;20192;-76
2023/05/24 03:15:55;;;;;;;8.87;4.60;;;;;;;13.02;88.20;100649.53;5078867;28;20263;-76
2023/05/24 03:18:20;;;;;;;8.67;4.67;;;;;;;12.94;87.96;100649.63;5076250;28;20212;-75
2023/05/24 03:20:46;;;;;;;9.13;4.87;;;;;;;12.96;87.36;100640.09;5081848;28;20186;-76
2023/05/24 03:23:11;;;;;;;7.43;4.27;;;;;;;12.92;87.67;100636.69;5076979;28;20646;-77
2023/05/24 03:25:36;;;;;;;7.37;4.37;;;;;;;12.87;87.67;100642.81;5078774;28;20191;-76
2023/05/24 03:28:02;;;;;;;11.47;4.77;;;;;;;12.86;87.70;100638.50;5079527;28;20289;-77
2023/05/24 03:30:27;;;;;;;9.17;4.63;;;;;;;12.85;87.95;100641.97;5082514;28;20182;-77
2023/05/24 03:32:53;;;;;;;6.27;4.30;;;;;;;12.80;87.86;100635.09;5078220;28;20191;-76
2023/05/24 03:35:19;;;;;;;7.33;4.43;;;;;;;12.83;87.77;100641.13;5074668;28;20242;-75
2023/05/24 03:37:44;;;;;;;9.53;4.63;;;;;;;12.85;87.48;100635.06;5083186;28;20252;-76
2023/05/24 03:40:10;;;;;;;7.50;4.33;;;;;;;12.84;87.42;100638.53;5074657;28;20186;-75
2023/05/24 03:42:35;;;;;;;7.27;4.13;;;;;;;12.79;87.33;100628.19;5078241;28;20191;-76
2023/05/24 03:45:00;;;;;;;11.87;4.83;;;;;;;12.81;87.33;100636.81;5080319;28;20192;-76
2023/05/24 03:47:26;;;;;;;7.40;4.97;;;;;;;12.78;88.07;100623.03;5080373;28;20196;-75
2023/05/24 03:49:51;;;;;;;6.17;4.47;;;;;;;12.74;88.56;100631.72;5063801;28;20273;-76
2023/05/24 03:52:16;;;;;;;9.67;4.77;;;;;;;12.73;88.77;100632.59;5059691;28;20179;-77
2023/05/24 03:54:42;;;;;;;8.20;4.50;;;;;;;12.79;88.21;100632.53;5071757;28;20194;-75
2023/05/24 03:57:07;;;;;;;7.57;4.50;;;;;;;12.67;89.31;100633.53;5059641;28;20279;-75
2023/05/24 03:59:32;;;;;;;10.03;4.40;;;;;;;12.73;87.91;100636.06;5083266;28;20289;-75
2023/05/24 04:01:58;;;;;;;7.50;4.47;;;;;;;12.68;88.62;100637.84;5058520;28;20255;-75
2023/05/24 04:04:23;;;;;;;7.97;4.50;;;;;;;12.59;89.50;100632.78;5079543;28;20182;-77
2023/05/24 04:06:48;;;;;;;7.93;4.80;;;;;;;12.67;88.57;100645.66;5085041;28;20242;-75
2023/05/24 04:09:14;;;;;;;8.57;4.53;;;;;;;12.65;88.35;100651.75;5084056;28;20197;-76
2023/05/24 04:11:40;;;;;;;9.43;4.47;;;;;;;12.69;87.92;100641.31;5078444;28;20179;-77
2023/05/24 04:14:06;;;;;;;8.20;4.43;;;;;;;12.62;88.35;100648.31;5081847;28;20188;-77
2023/05/24 04:16:32;;;;;;;7.60;4.60;;;;;;;12.65;87.76;100651.75;5085847;28;20280;-77
2023/05/24 04:19:00;;;;;;;8.60;5.07;;;;;;;12.68;86.88;100665.56;5080021;28;20233;-76
2023/05/24 04:21:26;;;;;;;8.90;4.80;;;;;;;12.62;86.73;100656.97;5077020;28;20237;-76
2023/05/24 04:23:51;;;;;;;7.47;4.37;;;;;;;12.63;87.09;100657.81;5078280;28;20326;-77
2023/05/24 04:26:17;;;;;;;8.33;4.20;;;;;;;12.58;86.22;100652.69;5082283;28;20320;-75
2023/05/24 04:28:44;;;;;;;7.33;4.60;;;;;;;12.61;85.64;100654.41;5079654;28;20617;-76
2023/05/24 04:31:10;;;;;;;9.07;4.33;;;;;;;12.63;85.62;100661.28;5082628;28;20179;-75
2023/05/24 04:33:35;;;;;;;7.93;4.60;;;;;;;12.52;86.63;100654.47;5084725;28;20187;-75
2023/05/24 04:36:01;;;;;;;8.67;4.40;;;;;;;12.50;86.78;100663.16;5076479;28;20190;-77
2023/05/24 04:38:28;;;;;;;6.70;4.17;;;;;;;12.55;85.75;100665.72;5078049;28;20217;-76
2023/05/24 04:40:58;;;;;;;8.80;4.13;;;;;;;12.54;86.22;100668.31;5079211;28;20181;-76
2023/05/24 04:43:25;;;;;;;9.77;4.47;;;;;;;12.54;86.10;100668.31;5078564;28;20189;-77
2023/05/24 04:45:50;;;;;;;10.10;4.80;;;;;;;12.56;85.93;100661.38;5059393;28;20204;-75
2023/05/24 04:48:16;;;;;;;9.10;4.20;;;;;;;12.52;86.44;100660.56;5077958;28;20696;-78
2023/05/24 04:50:41;;;;;;;9.47;4.50;;;;;;;12.51;85.92;100669.22;5075100;28;20239;-76
2023/05/24 04:53:07;;;;;;;10.23;4.60;;;;;;;12.42;86.37;100662.38;5081376;28;20206;-76
2023/05/24 04:55:32;;;;;;;18.13;5.37;;;;;;;12.45;86.95;100664.94;5081357;28;20975;-76
2023/05/24 04:57:58;;;;;;;8.40;4.13;;;;;;;12.45;85.85;100670.16;5075841;28;20233;-75
2023/05/24 05:00:23;;;;;;;10.17;4.80;;;;;;;12.44;85.90;100681.41;5072523;28;20181;-78
2023/05/24 05:02:48;;;;;;;11.90;4.80;;;;;;;12.43;85.66;100677.09;5077476;28;20309;-75
2023/05/24 05:05:15;;;;;;;10.87;4.20;;;;;;;12.34;86.98;100678.03;5076079;28;21054;-76
2023/05/24 05:07:40;;;;;;;13.93;4.83;;;;;;;12.39;86.43;100674.53;5082309;28;20270;-76
2023/05/24 05:10:06;;;;;;;11.80;4.50;;;;;;;12.41;85.89;100676.22;5082139;28;20186;-76
2023/05/24 05:12:32;;;;;;;9.87;3.83;;;;;;;12.43;85.66;100681.41;5057245;28;20178;-75
2023/05/24 05:14:57;;;;;;;8.83;4.23;;;;;;;12.41;85.59;100684.03;5074467;28;20192;-76
2023/05/24 05:17:22;;;;;;;8.30;4.30;;;;;;;12.35;86.11;100690.13;5061943;28;20220;-76
2023/05/24 05:19:48;;;;;;;13.67;5.23;;;;;;;12.38;86.31;100678.00;5057587;28;20729;-76
2023/05/24 05:22:13;;;;;;;6.97;4.00;;;;;;;12.37;86.60;100686.66;5082126;28;20585;-75
2023/05/24 05:24:38;;;;;;;8.17;4.20;;;;;;;12.46;86.14;100689.16;5059034;28;20663;-76
2023/05/24 05:27:05;;;;;;;7.43;4.13;;;;;;;12.43;86.50;100687.47;5075524;28;20248;-76
2023/05/24 05:29:30;;;;;;;11.80;4.20;;;;;;;12.46;86.37;100686.56;5081549;28;20251;-76
2023/05/24 05:31:55;;;;;;;9.80;4.23;;;;;;;12.45;86.25;100677.94;5078868;28;20205;-76
2023/05/24 05:34:20;;;;;;;9.07;4.67;;;;;;;12.49;86.25;100670.97;5060557;28;20197;-76
2023/05/24 05:36:46;;;;;;;9.07;4.30;;;;;;;12.49;86.03;100678.75;5075858;28;20193;-77
2023/05/24 05:39:11;;;;;;;8.47;4.13;;;;;;;12.51;85.65;100674.41;5083981;28;20212;-76
2023/05/24 05:41:42;;;;;;;8.77;4.00;;;;;;;12.50;86.10;100672.69;5062665;28;20699;-76
2023/05/24 05:44:08;;;;;;;10.23;4.40;;;;;;;12.52;85.62;100672.66;5082261;28;20200;-75
2023/05/24 05:46:34;;;;;;;7.57;4.10;;;;;;;12.64;84.09;100677.72;5069640;28;20178;-76
2023/05/24 05:48:59;;;;;;;9.53;5.23;;;;;;;12.53;85.16;100672.66;5073651;28;20199;-75
2023/05/24 05:51:25;;;;;;;9.23;4.60;;;;;;;12.47;85.35;100668.41;5078466;28;20177;-75
2023/05/24 05:53:50;;;;;;;10.37;4.20;;;;;;;12.50;85.25;100667.50;5081552;28;20583;-75
2023/05/24 05:56:16;;;;;;;9.57;4.23;;;;;;;12.57;85.99;100670.88;5076875;28;20185;-75
2023/05/24 05:58:41;;;;;;;8.63;4.67;;;;;;;12.59;85.02;100672.56;5079065;28;20207;-77
2023/05/24 06:01:07;;;;;;;9.80;4.23;;;;;;;12.63;85.47;100669.06;5080586;28;20584;-75
2023/05/24 06:03:32;;;;;;;12.13;4.63;;;;;;;12.73;84.99;100679.34;5078787;28;20296;-76
2023/05/24 06:05:57;;;;;;;10.97;4.60;;;;;;;12.77;83.77;100676.72;5068248;28;20186;-76
2023/05/24 06:08:23;;;;;;;10.60;4.10;;;;;;;12.83;84.29;100674.91;5083663;28;20197;-76
2023/05/24 06:10:48;;;;;;;11.03;4.17;;;;;;;12.86;83.84;100677.47;5078387;28;20260;-76
2023/05/24 06:13:13;;;;;;;9.70;4.20;;;;;;;12.99;82.90;100684.22;5057611;28;20205;-76
2023/05/24 06:15:39;;;;;;;8.70;4.47;;;;;;;13.03;83.00;100672.06;5077146;28;20185;-76
2023/05/24 06:18:04;;;;;;;9.53;4.23;;;;;;;13.11;82.52;100681.47;5078755;28;20993;-75
2023/05/24 06:20:30;;;;;;;10.87;4.37;;;;;;;13.22;82.83;100685.69;5081065;28;20231;-76
2023/05/24 06:22:55;;;;;;;8.37;4.43;;;;;;;13.30;82.07;100678.63;5075433;28;20678;-76
2023/05/24 06:25:23;;;;;;;9.83;4.30;;;;;;;13.30;81.36;100686.41;5076341;28;20265;-77
2023/05/24 06:27:49;;;;;;;10.13;4.40;;;;;;;13.37;82.13;100689.78;5088238;28;20197;-77
2023/05/24 06:30:15;;;;;;;7.90;3.57;;;;;;;13.55;81.55;100691.28;5068936;28;20212;-77
2023/05/24 06:32:40;;;;;;;13.33;5.17;;;;;;;13.76;81.66;100695.34;5087143;28;20203;-75
2023/05/24 06:35:06;;;;;;;8.57;3.97;;;;;;;13.94;79.66;100688.97;5081673;28;20185;-75
2023/05/24 06:37:32;;;;;;;10.53;4.10;;;;;;;13.97;77.87;100694.13;5086915;28;20654;-76
2023/05/24 06:39:57;;;;;;;8.97;3.83;;;;;;;13.91;78.08;100703.78;5084636;28;20187;-76
2023/05/24 06:42:23;;;;;;;10.00;4.20;;;;;;;13.82;78.94;100718.63;5072080;28;20208;-77
2023/05/24 06:44:48;;;;;;;7.87;3.63;;;;;;;13.74;79.57;100704.91;5075259;28;20195;-76
2023/05/24 06:47:13;;;;;;;9.43;4.07;;;;;;;13.67;79.93;100722.34;5081257;28;20183;-77
2023/05/24 06:49:39;;;;;;;8.93;4.40;;;;;;;13.56;79.79;100708.63;5080026;28;20207;-73
2023/05/24 06:52:06;;;;;;;14.77;4.20;;;;;;;13.44;79.64;100714.88;5075839;28;20648;-75
2023/05/24 06:54:31;;;;;;;9.00;4.23;;;;;;;13.30;79.32;100727.16;5086642;28;20279;-76
2023/05/24 06:56:57;;;;;;;9.70;4.90;;;;;;;13.20;80.28;100721.22;5061960;28;20284;-75
2023/05/24 06:59:23;;;;;;;9.87;4.80;;;;;;;13.23;80.30;100731.59;5076990;28;20228;-77
2023/05/24 07:01:52;;;;;;;10.37;4.73;;;;;;;13.28;79.53;100734.97;5063797;28;20210;-75
2023/05/24 07:04:17;;;;;;;10.80;5.07;;;;;;;13.27;79.96;100720.25;5080505;28;20656;-75
2023/05/24 07:06:42;;;;;;;13.00;4.77;;;;;;;13.35;80.12;100728.81;5082208;28;20185;-76
2023/05/24 07:09:09;;;;;;;9.60;4.40;;;;;;;13.41;79.97;100725.31;5074817;28;20199;-75
2023/05/24 07:11:34;;;;;;;10.73;4.63;;;;;;;13.51;80.06;100724.28;5074845;28;20283;-76
2023/05/24 07:13:59;;;;;;;17.27;5.50;;;;;;;13.58;80.38;100740.66;5080165;28;20789;-74
2023/05/24 07:16:25;;;;;;;7.40;3.97;;;;;;;13.56;79.82;100742.41;5087555;28;20263;-76
2023/05/24 07:18:50;;;;;;;9.17;4.20;;;;;;;13.58;79.86;100732.84;5085329;28;20208;-76
2023/05/24 07:21:15;;;;;;;7.00;4.07;;;;;;;13.67;80.28;100743.16;5078652;28;20208;-75
2023/05/24 07:23:41;;;;;;;12.27;4.50;;;;;;;13.75;79.48;100742.16;5060082;28;20331;-77
2023/05/24 07:26:07;;;;;;;8.57;4.43;;;;;;;13.81;79.39;100747.28;5077872;28;20186;-76
2023/05/24 07:28:36;;;;;;;10.73;3.90;;;;;;;13.78;78.49;100755.13;5081619;28;20199;-77
2023/05/24 07:31:02;;;;;;;10.63;4.73;;;;;;;13.72;78.59;100750.88;5080387;28;20183;-74
2023/05/24 07:33:27;;;;;;;11.53;4.00;;;;;;;13.70;78.27;100761.28;5079375;28;20520;-75
2023/05/24 07:35:52;;;;;;;10.23;4.37;;;;;;;13.72;78.41;100756.06;5078158;28;20193;-75
2023/05/24 07:38:18;;;;;;;25.17;5.47;;;;;;;13.70;78.78;100756.09;5073846;28;20204;-75
2023/05/24 07:40:43;;;;;;;11.40;4.33;;;;;;;13.76;78.29;100754.28;5080336;28;20193;-76
2023/05/24 07:43:09;;;;;;;11.23;4.37;;;;;;;13.81;78.62;100753.31;5077936;28;20253;-76
2023/05/24 07:45:34;;;;;;;10.33;4.20;;;;;;;13.88;78.54;100761.91;5078710;28;20219;-75
2023/05/24 07:48:00;;;;;;;7.03;3.87;;;;;;;13.91;79.08;100761.84;5078417;28;20323;-76
2023/05/24 07:50:25;;;;;;;9.10;4.13;;;;;;;14.02;79.46;100759.94;5075257;28;20918;-76
2023/05/24 07:52:51;;;;;;;11.80;4.37;;;;;;;14.13;79.00;100757.19;5075942;28;20727;-77
2023/05/24 07:55:16;;;;;;;8.53;4.70;;;;;;;14.24;78.71;100762.22;5077528;28;20215;-77
2023/05/24 07:57:41;;;;;;;9.53;4.00;;;;;;;14.35;77.97;100753.34;5076838;28;20209;-78
2023/05/24 08:00:13;;;;;;;9.90;4.23;;;;;;;14.46;76.42;100760.09;5059698;28;20192;-77
2023/05/24 08:02:39;;;;;;;11.47;4.90;;;;;;;14.50;75.68;100760.06;5077164;28;20228;-75
2023/05/24 08:05:05;;;;;;;12.27;4.87;;;;;;;14.77;75.06;100759.56;5080410;28;20217;-75
2023/05/24 08:07:30;;;;;;;8.17;4.00;;;;;;;14.81;74.44;100762.97;5079401;28;20663;-75
2023/05/24 08:09:56;;;;;;;10.00;3.73;;;;;;;14.96;74.65;100759.22;5077761;28;20185;-76
2023/05/24 08:12:21;;;;;;;9.80;4.10;;;;;;;14.94;73.88;100764.47;5077800;28;20268;-75
2023/05/24 08:14:47;;;;;;;8.03;3.90;;;;;;;15.07;74.12;100764.22;5078149;28;20204;-76
2023/05/24 08:17:12;;;;;;;10.00;4.23;;;;;;;15.07;73.62;100759.00;5083772;28;20588;-75
2023/05/24 08:19:37;;;;;;;8.83;4.00;;;;;;;15.09;74.25;100770.25;5081404;28;20251;-76
2023/05/24 08:22:03;;;;;;;10.27;3.97;;;;;;;15.16;73.60;100766.66;5064588;28;20307;-76
2023/05/24 08:24:30;;;;;;;11.87;4.70;;;;;;;15.16;73.45;100770.97;5060163;28;20273;-77
2023/05/24 08:26:55;;;;;;;12.20;4.63;;;;;;;15.14;73.55;100771.03;5089476;28;20189;-76
2023/05/24 08:29:21;;;;;;;10.63;3.87;;;;;;;15.09;73.31;100765.91;5086466;28;20698;-75
2023/05/24 08:31:47;;;;;;;10.00;4.03;;;;;;;15.11;73.23;100765.88;5087928;28;20200;-76
2023/05/24 08:34:12;;;;;;;10.13;4.10;;;;;;;15.09;73.45;100770.25;5086179;28;20358;-76
2023/05/24 08:36:38;;;;;;;10.77;4.30;;;;;;;15.22;73.50;100774.31;5088553;28;20607;-76
2023/05/24 08:39:03;;;;;;;13.83;4.30;;;;;;;15.07;73.99;100777.25;5084327;28;20217;-76
2023/05/24 08:41:31;;;;;;;8.57;4.63;;;;;;;15.05;73.30;100768.63;5108522;28;20220;-78
2023/05/24 08:44:00;;;;;;;18.40;4.83;;;;;;;15.07;74.29;100780.72;5106685;28;20215;-76
2023/05/24 08:46:25;;;;;;;8.60;4.33;;;;;;;14.97;73.53;100776.59;5105036;28;20177;-75
2023/05/24 08:48:51;;;;;;;10.83;4.27;;;;;;;14.95;73.34;100765.34;5076655;28;20288;-76
2023/05/24 08:51:17;;;;;;;8.90;3.80;;;;;;;15.02;74.31;100777.34;5083303;28;20209;-77
2023/05/24 08:53:48;;;;;;;8.73;4.23;;;;;;;15.15;73.94;100774.47;5083802;28;20189;-77
2023/05/24 08:56:16;;;;;;;9.30;3.70;;;;;;;15.18;72.94;100762.25;5081944;28;20888;-77
2023/05/24 08:58:42;;;;;;;11.83;4.13;;;;;;;15.19;73.08;100768.31;5081990;28;20249;-75
2023/05/24 09:01:09;;;;;;;10.97;4.23;;;;;;;15.11;72.69;100776.28;5083288;28;20189;-75
2023/05/24 09:03:36;;;;;;;8.57;3.60;;;;;;;15.15;72.88;100764.06;5084272;28;20196;-76
2023/05/24 09:06:02;;;;;;;8.30;3.93;;;;;;;15.13;71.32;100760.63;5082730;28;20208;-76
2023/05/24 09:08:28;;;;;;;11.93;3.93;;;;;;;15.18;69.14;100764.88;5084619;28;20204;-75
2023/05/24 09:10:55;;;;;;;6.57;3.27;;;;;;;15.35;69.03;100763.66;5077247;28;20205;-75
2023/05/24 09:13:22;;;;;;;9.30;3.50;;;;;;;15.48;69.22;100765.13;5068782;28;20596;-76
2023/05/24 09:15:47;;;;;;;11.27;4.50;;;;;;;15.69;68.09;100762.91;5083246;28;20200;-75
2023/05/24 09:18:13;;;;;;;9.20;3.87;;;;;;;16.06;68.53;100759.47;5084280;28;20625;-76
2023/05/24 09:20:38;;;;;;;9.37;3.57;;;;;;;16.44;69.37;100752.41;5084115;28;20185;-75
2023/05/24 09:23:04;;;;;;;9.33;3.60;;;;;;;16.93;68.81;100754.59;5080966;28;20209;-76
2023/05/24 09:25:29;;;;;;;8.77;3.70;;;;;;;17.32;66.47;100751.75;5069201;28;20187;-77
2023/05/24 09:27:55;;;;;;;6.23;2.67;;;;;;;17.76;66.01;100751.31;5056697;28;20734;-76
2023/05/24 09:30:20;;;;;;;8.20;3.40;;;;;;;18.01;64.62;100752.34;5080062;28;20181;-76
2023/05/24 09:32:55;;;;;;;8.30;3.47;;;;;;;18.16;63.98;100746.59;5082566;28;20185;-77
2023/05/24 09:35:21;;;;;;;11.43;3.73;;;;;;;17.55;63.93;100765.94;5078429;28;20215;-77
2023/05/24 09:37:47;;;;;;;7.77;3.77;;;;;;;17.56;63.10;100759.78;5073588;28;20296;-76
2023/05/24 09:40:22;;;;;;;8.07;3.20;;;;;;;17.58;63.37;100763.22;5072030;28;20177;-77
2023/05/24 09:42:50;;;;;;;9.80;3.73;;;;;;;17.29;62.92;100757.13;5076155;28;20212;-77
2023/05/24 09:45:16;;;;;;;9.27;3.30;;;;;;;16.91;64.10;100757.28;5074744;28;20250;-76
2023/05/24 09:47:44;;;;;;;11.23;3.73;;;;;;;16.50;64.64;100761.84;5077184;28;20206;-77
2023/05/24 09:50:14;;;;;;;9.27;4.20;;;;;;;16.14;65.25;100765.34;5071402;28;20216;-75
2023/05/24 09:52:40;;;;;;;7.97;3.40;;;;;;;16.08;67.66;100755.06;5079242;28;20223;-76
2023/05/24 09:55:13;;;;;;;7.67;3.40;;;;;;;16.08;67.31;100752.47;5070406;28;20185;-76
2023/05/24 09:57:38;;;;;;;9.80;3.43;;;;;;;16.12;64.62;100764.53;5077182;28;20704;-76
2023/05/24 10:00:16;;;;;;;10.10;3.63;;;;;;;16.11;65.34;100754.13;5079295;28;20210;-75
2023/05/24 10:02:43;;;;;;;7.63;3.30;;;;;;;16.15;65.84;100758.41;5080084;28;20195;-77
2023/05/24 10:05:12;;;;;;;9.67;3.93;;;;;;;16.16;65.39;100754.88;5077471;28;20208;-77
2023/05/24 10:07:39;;;;;;;9.40;3.70;;;;;;;16.06;65.24;100756.00;5082274;28;20607;-75
2023/05/24 10:10:06;;;;;;;6.83;3.90;;;;;;;15.97;64.24;100757.94;5084264;28;20178;-76
2023/05/24 10:12:33;;;;;;;8.20;3.73;;;;;;;16.02;63.56;100755.22;5072463;28;20213;-76
2023/05/24 10:14:59;;;;;;;8.27;3.47;;;;;;;16.03;64.79;100761.31;5076441;28;20189;-77
2023/05/24 10:17:27;;;;;;;7.60;2.90;;;;;;;16.12;64.81;100753.25;5088581;28;20182;-75
2023/05/24 10:19:53;;;;;;;7.40;3.30;;;;;;;16.24;63.03;100745.09;5096671;28;20182;-75
2023/05/24 10:22:21;;;;;;;8.33;3.50;;;;;;;16.32;64.22;100750.13;5086724;28;20239;-75
2023/05/24 10:24:49;;;;;;;9.07;3.20;;;;;;;16.39;nan;100741.25;5066936;28;20209;-76
2023/05/24 10:27:27;;;;;;;11.53;3.20;;;;;;;16.34;60.22;100743.13;5087289;28;20286;-76
2023/05/24 10:29:55;;;;;;;9.07;3.20;;;;;;;16.36;61.00;100743.94;5085005;28;20276;-76
2023/05/24 10:32:23;;;;;;;8.97;3.30;;;;;;;16.30;61.25;100728.41;5074569;28;20177;-75
2023/05/24 10:34:50;;;;;;;9.20;3.53;;;;;;;16.35;61.95;100733.50;5078979;28;20197;-76
2023/05/24 10:37:18;;;;;;;7.37;3.23;;;;;;;16.40;64.54;100722.06;5087072;28;20181;-78
2023/05/24 10:39:43;;;;;;;8.37;3.73;;;;;;;16.54;65.25;100723.47;5080727;28;21002;-76
2023/05/24 10:42:09;;;;;;;6.77;3.30;;;;;;;16.69;62.69;100719.56;5070446;28;20281;-76
2023/05/24 10:44:34;;;;;;;10.80;3.27;;;;;;;16.73;62.07;100715.97;5085264;28;20186;-76
2023/05/24 10:47:14;;;;;;;7.37;3.00;;;;;;;16.71;61.46;100715.16;5080094;28;20207;-77
2023/05/24 10:49:51;;;;;;;6.03;2.70;;;;;;;16.78;61.53;100703.63;5081962;28;20727;-76
2023/05/24 10:52:17;;;;;;;7.57;3.27;;;;;;;16.91;61.93;100709.34;5084866;28;20186;-76
2023/05/24 10:55:04;;;;;;;6.70;3.10;;;;;;;17.03;61.37;100702.94;5082608;28;20194;-76
2023/05/24 10:57:31;;;;;;;8.60;3.20;;;;;;;17.09;61.76;100704.53;5085501;28;20598;-76
2023/05/24 11:00:17;;;;;;;5.87;2.80;;;;;;;17.11;61.71;100700.97;5084561;28;20190;-77
2023/05/24 11:02:43;;;;;;;7.73;3.17;;;;;;;17.30;62.41;100695.19;5082558;28;20274;-76
2023/05/24 11:05:08;;;;;;;7.47;2.70;;;;;;;17.47;62.97;100678.97;5078140;28;20179;-76
2023/05/24 11:07:41;;;;;;;9.03;3.60;;;;;;;17.41;60.94;100689.63;5081074;28;20306;-75
2023/05/24 11:10:15;;;;;;;7.90;3.10;;;;;;;17.48;61.34;100692.00;5079143;28;20561;-76
2023/05/24 11:12:43;;;;;;;7.90;3.20;;;;;;;17.56;61.07;100689.16;5079620;28;20178;-77
2023/05/24 11:15:10;;;;;;;6.93;3.37;;;;;;;17.50;61.46;100694.56;5073180;28;20194;-76
2023/05/24 11:18:12;;;;;;;13.33;3.70;;;;;;;17.52;60.71;100690.13;5056023;28;20286;-76
2023/05/24 11:20:40;;;;;;;7.40;3.53;;;;;;;17.36;60.22;100679.31;5073401;28;20181;-76
2023/05/24 11:23:08;;;;;;;9.97;3.47;;;;;;;17.31;60.71;100675.97;5079639;28;20236;-76